createdAt,value
2023-02-12T00:00:53.157Z,26.57
2023-02-12T00:03:20.346Z,24.43
2023-02-12T00:05:47.503Z,24.37
2023-02-12T00:08:16.162Z,24.47
2023-02-12T00:10:44.125Z,25.60
2023-02-12T00:13:12.148Z,24.27
2023-02-12T00:15:43.829Z,22.20
2023-02-12T00:18:11.341Z,24.57
2023-02-12T00:20:39.179Z,22.67
2023-02-12T00:23:06.791Z,25.00
2023-02-12T00:25:34.874Z,25.20
2023-02-12T00:28:02.477Z,25.20
2023-02-12T00:30:30.093Z,27.30
2023-02-12T00:32:57.283Z,24.40
2023-02-12T00:35:24.479Z,26.77
2023-02-12T00:37:51.642Z,24.30
2023-02-12T00:40:19.662Z,26.00
2023-02-12T00:42:46.854Z,24.73
2023-02-12T00:45:14.118Z,23.23
2023-02-12T00:47:41.559Z,24.43
2023-02-12T00:50:09.128Z,22.93
2023-02-12T00:52:36.338Z,23.30
2023-02-12T00:55:04.165Z,24.67
2023-02-12T00:57:33.266Z,25.67
2023-02-12T01:00:00.533Z,24.67
2023-02-12T01:02:27.773Z,25.60
2023-02-12T01:04:55.008Z,25.37
2023-02-12T01:07:24.979Z,27.60
2023-02-12T01:09:52.143Z,22.23
2023-02-12T01:12:19.332Z,25.37
2023-02-12T01:14:47.290Z,22.47
2023-02-12T01:17:14.502Z,24.13
2023-02-12T01:19:44.821Z,25.27
2023-02-12T01:22:12.022Z,28.50
2023-02-12T01:24:39.210Z,24.70
2023-02-12T01:27:06.368Z,26.57
2023-02-12T01:29:33.554Z,25.37
2023-02-12T01:32:01.606Z,26.23
2023-02-12T01:34:29.238Z,25.97
2023-02-12T01:36:56.456Z,24.23
2023-02-12T01:39:23.634Z,28.60
2023-02-12T01:41:50.772Z,25.37
2023-02-12T01:44:19.544Z,26.53
2023-02-12T01:46:49.156Z,24.80
2023-02-12T01:49:36.858Z,25.60
2023-02-12T01:52:22.252Z,25.70
2023-02-12T01:54:52.167Z,27.67
2023-02-12T01:57:20.362Z,24.50
2023-02-12T01:59:52.468Z,23.77
2023-02-12T02:02:20.440Z,22.90
2023-02-12T02:04:53.764Z,23.47
2023-02-12T02:07:20.991Z,21.63
2023-02-12T02:09:48.709Z,22.47
2023-02-12T02:12:34.301Z,21.30
2023-02-12T02:17:51.660Z,19.87
2023-02-12T02:20:39.711Z,20.33
2023-02-12T02:23:15.672Z,20.03
2023-02-12T02:26:05.320Z,20.03
2023-02-12T02:28:37.913Z,21.70
2023-02-12T02:31:14.863Z,21.93
2023-02-12T02:33:56.904Z,19.53
2023-02-12T02:36:30.224Z,20.60
2023-02-12T02:39:05.091Z,21.37
2023-02-12T02:41:36.129Z,20.27
2023-02-12T02:44:10.235Z,20.77
2023-02-12T02:46:51.607Z,19.63
2023-02-12T02:49:38.141Z,19.57
2023-02-12T02:52:10.694Z,21.20
2023-02-12T02:54:42.451Z,21.57
2023-02-12T02:57:15.300Z,22.27
2023-02-12T02:59:52.272Z,20.77
2023-02-12T03:02:31.215Z,22.00
2023-02-12T03:05:06.594Z,23.23
2023-02-12T03:07:56.184Z,25.30
2023-02-12T03:10:29.588Z,20.07
2023-02-12T03:13:11.145Z,22.23
2023-02-12T03:16:03.287Z,20.67
2023-02-12T03:18:41.410Z,23.30
2023-02-12T03:21:15.098Z,20.57
2023-02-12T03:23:46.606Z,20.20
2023-02-12T03:26:22.028Z,20.03
2023-02-12T03:28:49.400Z,22.50
2023-02-12T03:31:29.372Z,21.83
2023-02-12T03:34:12.085Z,22.87
2023-02-12T03:36:52.523Z,23.30
2023-02-12T03:39:23.771Z,21.90
2023-02-12T03:42:12.342Z,22.80
2023-02-12T03:45:02.269Z,24.43
2023-02-12T03:47:29.436Z,23.33
2023-02-12T03:50:09.825Z,23.80
2023-02-12T03:52:37.259Z,20.53
2023-02-12T03:55:05.398Z,23.17
2023-02-12T03:57:38.261Z,23.17
2023-02-12T04:00:09.897Z,22.00
2023-02-12T04:02:43.334Z,23.63
2023-02-12T04:05:26.439Z,23.50
2023-02-12T04:07:56.506Z,22.77
2023-02-12T04:10:47.637Z,23.47
2023-02-12T04:13:49.911Z,21.60
2023-02-12T04:16:17.301Z,24.37
2023-02-12T04:18:49.346Z,23.20
2023-02-12T04:21:44.749Z,21.90
2023-02-12T04:24:20.485Z,21.70
2023-02-12T04:27:25.703Z,21.00
2023-02-12T04:30:00.161Z,20.70
2023-02-12T04:32:47.880Z,22.83
2023-02-12T04:35:32.170Z,20.57
2023-02-12T04:38:11.302Z,19.47
2023-02-12T04:40:41.149Z,20.20
2023-02-12T04:43:09.213Z,20.17
2023-02-12T04:45:38.226Z,19.57
2023-02-12T04:48:06.503Z,20.03
2023-02-12T04:50:41.981Z,21.67
2023-02-12T04:53:09.594Z,21.47
2023-02-12T04:55:37.110Z,19.33
2023-02-12T04:58:05.048Z,21.57
2023-02-12T05:00:32.343Z,21.50
2023-02-12T05:02:59.546Z,20.87
2023-02-12T05:05:27.337Z,20.90
2023-02-12T05:07:54.578Z,22.27
2023-02-12T05:10:21.802Z,21.70
2023-02-12T05:12:52.331Z,19.80
2023-02-12T05:15:19.802Z,21.37
2023-02-12T05:17:47.160Z,21.80
2023-02-12T05:20:14.480Z,21.50
2023-02-12T05:22:41.745Z,24.07
2023-02-12T05:25:08.931Z,23.60
2023-02-12T05:27:36.083Z,21.77
2023-02-12T05:30:03.708Z,27.17
2023-02-12T05:32:30.894Z,28.70
2023-02-12T05:34:58.058Z,25.50
2023-02-12T05:37:25.261Z,25.63
2023-02-12T05:39:53.756Z,25.10
2023-02-12T05:42:21.016Z,24.00
2023-02-12T05:44:48.163Z,25.00
2023-02-12T05:47:15.368Z,22.93
2023-02-12T05:49:42.811Z,22.87
2023-02-12T05:52:09.999Z,21.43
2023-02-12T05:54:37.148Z,21.87
2023-02-12T05:57:04.330Z,23.10
2023-02-12T05:59:31.990Z,24.97
2023-02-12T06:01:59.231Z,23.10
2023-02-12T06:04:28.794Z,21.63
2023-02-12T06:06:56.445Z,23.27
2023-02-12T06:09:24.036Z,22.13
2023-02-12T06:11:51.425Z,29.40
2023-02-12T06:14:19.990Z,21.83
2023-02-12T06:16:49.029Z,23.93
2023-02-12T06:19:16.977Z,25.23
2023-02-12T06:21:44.626Z,20.87
2023-02-12T06:24:16.581Z,21.70
2023-02-12T06:26:44.522Z,23.97
2023-02-12T06:29:13.554Z,23.10
2023-02-12T06:31:40.998Z,23.27
2023-02-12T06:34:10.439Z,21.97
2023-02-12T06:36:40.120Z,24.03
2023-02-12T06:39:07.432Z,19.50
2023-02-12T06:41:34.834Z,21.90
2023-02-12T06:44:02.003Z,22.80
2023-02-12T06:46:29.322Z,20.80
2023-02-12T06:48:58.438Z,26.07
2023-02-12T06:51:28.004Z,22.63
2023-02-12T06:53:56.291Z,22.93
2023-02-12T06:56:26.669Z,20.30
2023-02-12T06:58:59.431Z,22.67
2023-02-12T07:01:28.863Z,21.77
2023-02-12T07:03:59.177Z,21.93
2023-02-12T07:06:27.776Z,24.03
2023-02-12T07:08:55.988Z,20.33
2023-02-12T07:11:25.142Z,21.90
2023-02-12T07:13:52.433Z,19.50
2023-02-12T07:16:20.043Z,20.90
2023-02-12T07:18:47.820Z,21.57
2023-02-12T07:21:16.078Z,23.30
2023-02-12T07:23:51.415Z,21.77
2023-02-12T07:26:20.499Z,26.93
2023-02-12T07:28:47.850Z,26.07
2023-02-12T07:31:18.062Z,23.77
2023-02-12T07:33:46.325Z,26.10
2023-02-12T07:36:16.090Z,26.50
2023-02-12T07:38:43.408Z,26.33
2023-02-12T07:41:14.553Z,25.10
2023-02-12T07:43:43.384Z,25.23
2023-02-12T07:46:38.356Z,27.23
2023-02-12T07:49:07.425Z,27.63
2023-02-12T07:51:35.421Z,28.00
2023-02-12T07:54:03.443Z,28.00
2023-02-12T07:56:35.056Z,31.33
2023-02-12T07:59:05.794Z,28.73
2023-02-12T08:01:41.216Z,31.27
2023-02-12T08:04:10.866Z,29.17
2023-02-12T08:06:41.142Z,26.97
2023-02-12T08:09:11.505Z,27.73
2023-02-12T08:11:39.483Z,30.60
2023-02-12T08:14:07.175Z,30.33
2023-02-12T08:16:39.352Z,32.87
2023-02-12T08:19:17.596Z,30.83
2023-02-12T08:21:50.397Z,33.57
2023-02-12T08:24:17.704Z,34.30
2023-02-12T08:26:45.173Z,34.17
2023-02-12T08:29:15.431Z,33.73
2023-02-12T08:31:44.718Z,33.47
2023-02-12T08:34:21.306Z,35.73
2023-02-12T08:36:50.418Z,31.87
2023-02-12T08:39:18.472Z,33.33
2023-02-12T08:41:46.677Z,32.43
2023-02-12T08:44:14.632Z,34.53
2023-02-12T08:46:48.041Z,32.10
2023-02-12T08:49:24.648Z,31.93
2023-02-12T08:51:54.512Z,32.17
2023-02-12T08:54:24.807Z,31.73
2023-02-12T08:56:56.608Z,34.83
2023-02-12T08:59:24.286Z,33.63
2023-02-12T09:01:52.598Z,35.10
2023-02-12T09:04:22.771Z,31.50
2023-02-12T09:06:50.797Z,29.67
2023-02-12T09:09:19.635Z,29.57
2023-02-12T09:11:47.278Z,29.70
2023-02-12T09:14:16.303Z,28.77
2023-02-12T09:16:43.653Z,29.93
2023-02-12T09:19:14.055Z,25.77
2023-02-12T09:21:41.947Z,28.00
2023-02-12T09:24:09.705Z,27.73
2023-02-12T09:26:37.196Z,26.30
2023-02-12T09:29:05.168Z,24.33
2023-02-12T09:31:33.677Z,24.03
2023-02-12T09:34:06.183Z,22.90
2023-02-12T09:36:33.773Z,23.10
2023-02-12T09:39:01.036Z,24.53
2023-02-12T09:42:01.228Z,25.33
2023-02-12T09:45:06.383Z,19.70
2023-02-12T09:47:51.264Z,22.00
2023-02-12T09:50:37.457Z,22.60
2023-02-12T09:53:05.554Z,17.53
2023-02-12T09:55:34.468Z,17.90
2023-02-12T09:58:05.278Z,10.50
2023-02-12T10:00:32.772Z,7.83
2023-02-12T10:03:05.825Z,4.00
2023-02-12T10:05:41.036Z,5.80
2023-02-12T10:08:43.586Z,3.97
2023-02-12T10:11:48.381Z,5.40
2023-02-12T10:14:23.798Z,3.97
2023-02-12T10:17:21.573Z,3.73
2023-02-12T10:20:04.860Z,5.83
2023-02-12T10:22:56.063Z,4.97
2023-02-12T10:25:40.830Z,2.83
2023-02-12T10:28:13.329Z,3.77
2023-02-12T10:30:49.009Z,3.97
2023-02-12T10:33:36.441Z,3.60
2023-02-12T10:36:13.413Z,4.00
2023-02-12T10:38:46.953Z,6.60
2023-02-12T10:41:16.320Z,5.50
2023-02-12T10:43:43.803Z,5.17
2023-02-12T10:46:17.942Z,5.10
2023-02-12T10:48:49.499Z,7.33
2023-02-12T10:51:31.813Z,15.43
2023-02-12T10:54:31.177Z,12.47
2023-02-12T10:56:59.940Z,12.70
2023-02-12T10:59:28.893Z,10.07
2023-02-12T11:01:56.119Z,13.00
2023-02-12T11:04:23.543Z,8.67
2023-02-12T11:07:17.278Z,15.47
2023-02-12T11:09:49.801Z,11.37
2023-02-12T11:12:48.162Z,6.80
2023-02-12T11:15:22.640Z,5.83
2023-02-12T11:18:05.675Z,5.67
2023-02-12T11:20:50.094Z,8.20
2023-02-12T11:23:27.737Z,6.97
2023-02-12T11:26:02.277Z,7.50
2023-02-12T11:28:31.390Z,8.90
2023-02-12T11:31:22.974Z,7.23
2023-02-12T11:34:15.548Z,7.27
2023-02-12T11:36:51.956Z,7.30
2023-02-12T11:39:37.976Z,5.57
2023-02-12T11:42:17.068Z,3.50
2023-02-12T11:44:53.370Z,6.47
2023-02-12T11:47:26.668Z,5.07
2023-02-12T11:49:58.923Z,5.03
2023-02-12T11:52:29.825Z,3.10
2023-02-12T11:55:07.084Z,4.73
2023-02-12T11:57:43.369Z,2.73
2023-02-12T12:00:24.719Z,4.90
2023-02-12T12:03:25.197Z,5.30
2023-02-12T12:06:01.037Z,2.90
2023-02-12T12:08:41.758Z,2.87
2023-02-12T12:11:17.921Z,3.33
2023-02-12T12:13:53.813Z,2.97
2023-02-12T12:16:54.705Z,2.73
2023-02-12T12:19:57.273Z,2.97
2023-02-12T12:22:42.729Z,2.40
2023-02-12T12:25:19.121Z,2.73
2023-02-12T12:28:04.063Z,3.87
2023-02-12T12:30:56.967Z,7.30
2023-02-12T12:33:38.983Z,9.50
2023-02-12T12:36:18.492Z,5.63
2023-02-12T12:38:56.581Z,3.83
2023-02-12T12:41:48.004Z,4.60
2023-02-12T12:44:50.181Z,3.07
2023-02-12T12:47:20.194Z,2.70
2023-02-12T12:49:50.373Z,2.60
2023-02-12T12:52:41.741Z,3.40
2023-02-12T12:55:36.556Z,2.93
2023-02-12T12:58:23.986Z,2.53
2023-02-12T13:01:24.879Z,2.53
2023-02-12T13:04:09.095Z,3.27
2023-02-12T13:06:59.586Z,2.70
2023-02-12T13:10:01.751Z,2.63
2023-02-12T13:12:53.183Z,4.23
2023-02-12T13:15:38.427Z,4.00
2023-02-12T13:18:05.633Z,7.53
2023-02-12T13:21:05.753Z,7.40
2023-02-12T13:23:57.166Z,6.30
2023-02-12T13:26:37.201Z,6.17
2023-02-12T13:29:41.342Z,5.97
2023-02-12T13:32:45.395Z,5.90
2023-02-12T13:35:20.575Z,5.03
2023-02-12T13:37:58.932Z,5.13
2023-02-12T13:40:30.658Z,7.50
2023-02-12T13:43:22.766Z,6.17
2023-02-12T13:46:08.736Z,6.50
2023-02-12T13:48:54.110Z,7.77
2023-02-12T13:51:41.650Z,5.83
2023-02-12T13:54:16.512Z,5.70
2023-02-12T13:56:51.682Z,12.60
2023-02-12T13:59:34.126Z,12.47
2023-02-12T14:02:33.410Z,10.63
2023-02-12T14:05:20.914Z,14.47
2023-02-12T14:07:52.467Z,15.10
2023-02-12T14:10:21.324Z,12.87
2023-02-12T14:12:49.124Z,14.07
2023-02-12T14:15:33.794Z,12.53
2023-02-12T14:18:08.015Z,12.70
2023-02-12T14:20:40.674Z,13.37
2023-02-12T14:23:27.056Z,13.17
2023-02-12T14:26:16.280Z,10.77
2023-02-12T14:29:04.074Z,10.03
2023-02-12T14:31:36.956Z,9.43
2023-02-12T14:34:11.175Z,9.93
2023-02-12T14:36:43.738Z,9.27
2023-02-12T14:39:19.791Z,9.43
2023-02-12T14:41:47.666Z,10.03
2023-02-12T14:44:17.896Z,9.00
2023-02-12T14:46:48.669Z,12.53
2023-02-12T14:49:35.495Z,15.13
2023-02-12T14:52:15.134Z,11.33
2023-02-12T14:54:57.598Z,12.70
2023-02-12T14:57:34.970Z,13.67
2023-02-12T15:00:17.037Z,10.47
2023-02-12T15:03:25.039Z,9.63
2023-02-12T15:06:04.465Z,12.57
2023-02-12T15:08:48.770Z,9.43
2023-02-12T15:11:47.023Z,8.87
2023-02-12T15:14:20.022Z,9.70
2023-02-12T15:17:03.609Z,11.70
2023-02-12T15:19:47.092Z,10.50
2023-02-12T15:22:29.580Z,9.53
2023-02-12T15:25:26.686Z,10.60
2023-02-12T15:27:57.119Z,10.63
2023-02-12T15:30:27.870Z,10.70
2023-02-12T15:33:02.597Z,11.87
2023-02-12T15:35:33.324Z,13.83
2023-02-12T15:38:01.773Z,11.67
2023-02-12T15:40:31.273Z,11.93
2023-02-12T15:43:02.752Z,10.23
2023-02-12T15:45:35.316Z,10.53
2023-02-12T15:48:17.709Z,11.50
2023-02-12T15:50:49.983Z,11.17
2023-02-12T15:53:17.649Z,12.07
2023-02-12T15:55:47.528Z,14.30
2023-02-12T15:58:41.830Z,13.33
2023-02-12T16:01:25.194Z,12.07
2023-02-12T16:04:04.525Z,12.60
2023-02-12T16:06:34.405Z,11.33
2023-02-12T16:09:07.249Z,13.27
2023-02-12T16:11:35.429Z,12.13
2023-02-12T16:14:17.555Z,14.00
2023-02-12T16:16:49.225Z,14.50
2023-02-12T16:19:20.979Z,14.80
2023-02-12T16:22:10.739Z,15.37
2023-02-12T16:24:43.542Z,15.47
2023-02-12T16:27:16.446Z,15.13
2023-02-12T16:29:52.868Z,17.93
2023-02-12T16:32:37.100Z,15.90
2023-02-12T16:35:22.045Z,18.03
2023-02-12T16:38:27.334Z,16.77
2023-02-12T16:41:14.739Z,17.00
2023-02-12T16:43:41.924Z,15.57
2023-02-12T16:46:09.394Z,17.73
2023-02-12T16:48:40.127Z,20.47
2023-02-12T16:51:30.312Z,19.07
2023-02-12T16:54:03.856Z,19.87
2023-02-12T16:56:38.502Z,17.73
2023-02-12T16:59:05.817Z,18.10
2023-02-12T17:01:36.329Z,19.77
2023-02-12T17:04:14.021Z,24.47
2023-02-12T17:06:41.205Z,21.13
2023-02-12T17:09:10.130Z,20.63
2023-02-12T17:11:37.442Z,19.70
2023-02-12T17:14:04.621Z,19.63
2023-02-12T17:16:32.536Z,22.37
2023-02-12T17:19:00.602Z,21.90
2023-02-12T17:21:31.297Z,23.37
2023-02-12T17:23:59.621Z,21.87
2023-02-12T17:26:26.864Z,27.27
2023-02-12T17:28:54.086Z,24.20
2023-02-12T17:31:21.365Z,28.73
2023-02-12T17:33:48.653Z,29.73
2023-02-12T17:36:15.909Z,29.03
2023-02-12T17:38:43.101Z,27.30
2023-02-12T17:41:10.947Z,29.33
2023-02-12T17:43:38.146Z,27.67
2023-02-12T17:46:13.978Z,27.27
2023-02-12T17:48:41.235Z,29.70
2023-02-12T17:51:11.399Z,28.27
2023-02-12T17:53:39.911Z,28.13
2023-02-12T17:56:19.079Z,29.47
2023-02-12T17:58:47.300Z,31.10
2023-02-12T18:01:16.849Z,30.13
2023-02-12T18:03:44.107Z,29.23
2023-02-12T18:06:14.097Z,28.97
2023-02-12T18:08:42.403Z,33.77
2023-02-12T18:11:11.317Z,33.07
2023-02-12T18:13:39.368Z,33.67
2023-02-12T18:16:08.159Z,31.77
2023-02-12T18:18:36.233Z,37.13
2023-02-12T18:21:11.919Z,46.70
2023-02-12T18:23:39.653Z,38.07
2023-02-12T18:26:16.215Z,36.47
2023-02-12T18:28:44.244Z,35.33
2023-02-12T18:31:12.366Z,35.83
2023-02-12T18:33:39.930Z,35.40
2023-02-12T18:36:13.782Z,34.53
2023-02-12T18:38:42.168Z,38.73
2023-02-12T18:41:12.337Z,36.23
2023-02-12T18:43:39.967Z,38.53
2023-02-12T18:46:09.558Z,35.20
2023-02-12T18:48:37.128Z,34.63
2023-02-12T18:51:06.074Z,37.60
2023-02-12T18:53:33.961Z,35.00
2023-02-12T18:56:05.173Z,34.20
2023-02-12T18:58:32.587Z,33.57
2023-02-12T19:01:00.282Z,37.03
2023-02-12T19:03:27.853Z,35.63
2023-02-12T19:06:03.817Z,37.60
2023-02-12T19:08:31.339Z,36.10
2023-02-12T19:10:58.829Z,37.03
2023-02-12T19:13:26.220Z,33.53
2023-02-12T19:15:53.529Z,39.27
2023-02-12T19:18:20.728Z,41.40
2023-02-12T19:20:47.906Z,39.43
2023-02-12T19:23:15.135Z,38.73
2023-02-12T19:25:45.573Z,37.30
2023-02-12T19:28:12.990Z,37.57
2023-02-12T19:30:41.133Z,36.90
2023-02-12T19:33:08.966Z,33.03
2023-02-12T19:35:36.101Z,39.73
2023-02-12T19:38:03.318Z,38.03
2023-02-12T19:40:31.063Z,37.93
2023-02-12T19:42:58.227Z,39.60
2023-02-12T19:45:25.408Z,37.43
2023-02-12T19:47:52.640Z,35.70
2023-02-12T19:50:19.913Z,38.80
2023-02-12T19:52:47.120Z,35.77
2023-02-12T19:55:14.439Z,39.90
2023-02-12T19:57:41.868Z,36.87
2023-02-12T20:00:09.762Z,39.33
2023-02-12T20:02:36.992Z,39.77
2023-02-12T20:05:04.305Z,39.43
2023-02-12T20:07:31.655Z,39.17
2023-02-12T20:09:58.818Z,36.77
2023-02-12T20:12:26.111Z,38.90
2023-02-12T20:14:55.598Z,40.53
2023-02-12T20:17:22.798Z,38.70
2023-02-12T20:19:50.032Z,40.50
2023-02-12T20:22:17.249Z,39.37
2023-02-12T20:24:44.498Z,38.37
2023-02-12T20:27:12.858Z,38.37
2023-02-12T20:29:40.445Z,41.67
2023-02-12T20:32:07.729Z,38.67
2023-02-12T20:34:49.915Z,39.50
2023-02-12T20:37:18.756Z,40.17
2023-02-12T20:39:46.015Z,43.43
2023-02-12T20:42:13.218Z,43.63
2023-02-12T20:44:40.398Z,44.20
2023-02-12T20:47:07.721Z,43.07
2023-02-12T20:49:35.645Z,62.23
2023-02-12T20:52:02.836Z,54.27
2023-02-12T20:54:30.004Z,64.73
2023-02-12T20:56:57.180Z,134.03
2023-02-12T20:59:24.448Z,71.67
2023-02-12T21:01:51.827Z,45.30
2023-02-12T21:04:19.739Z,75.97
2023-02-12T21:06:48.234Z,62.67
2023-02-12T21:09:15.432Z,53.50
2023-02-12T21:11:45.446Z,56.97
2023-02-12T21:14:23.472Z,63.50
2023-02-12T21:16:53.950Z,101.23
2023-02-12T21:19:22.045Z,69.27
2023-02-12T21:21:49.396Z,97.53
2023-02-12T21:24:21.455Z,55.20
2023-02-12T21:26:49.402Z,75.30
2023-02-12T21:29:16.835Z,95.13
2023-02-12T21:31:46.501Z,103.93
2023-02-12T21:34:20.892Z,72.20
2023-02-12T21:36:49.738Z,188.97
2023-02-12T21:39:24.513Z,85.40
2023-02-12T21:41:54.300Z,121.27
2023-02-12T21:44:23.385Z,243.73
2023-02-12T21:46:50.661Z,77.33
2023-02-12T21:49:24.637Z,124.17
2023-02-12T21:52:01.827Z,71.70
2023-02-12T21:54:29.857Z,65.63
2023-02-12T21:56:58.447Z,81.10
2023-02-12T21:59:28.558Z,32.77
2023-02-12T22:01:58.525Z,29.03
2023-02-12T22:04:26.251Z,72.13
2023-02-12T22:06:53.952Z,62.87
2023-02-12T22:09:22.716Z,70.87
2023-02-12T22:11:52.293Z,48.50
2023-02-12T22:14:21.074Z,113.50
2023-02-12T22:16:48.447Z,122.77
2023-02-12T22:19:15.690Z,52.23
2023-02-12T22:21:44.189Z,65.67
2023-02-12T22:24:15.007Z,37.43
2023-02-12T22:26:43.221Z,44.87
2023-02-12T22:29:12.753Z,69.23
2023-02-12T22:31:41.039Z,56.63
2023-02-12T22:34:12.867Z,52.13
2023-02-12T22:36:41.070Z,50.50
2023-02-12T22:39:10.097Z,40.03
2023-02-12T22:41:37.850Z,56.50
2023-02-12T22:44:05.330Z,48.17
2023-02-12T22:46:33.256Z,64.90
2023-02-12T22:49:00.523Z,30.00
2023-02-12T22:51:31.070Z,60.83
2023-02-12T22:53:59.230Z,50.13
2023-02-12T22:56:27.218Z,56.77
2023-02-12T22:58:56.579Z,64.57
2023-02-12T23:01:24.486Z,61.53
2023-02-12T23:03:52.167Z,113.33
2023-02-12T23:06:22.042Z,113.43
2023-02-12T23:08:53.998Z,87.90
2023-02-12T23:11:21.937Z,55.07
2023-02-12T23:13:49.089Z,99.53
2023-02-12T23:16:16.926Z,78.77
2023-02-12T23:18:44.166Z,65.77
2023-02-12T23:21:11.334Z,59.97
2023-02-12T23:23:38.668Z,78.80
2023-02-12T23:26:05.998Z,46.50
2023-02-12T23:28:33.269Z,95.23
2023-02-12T23:31:01.113Z,78.30
2023-02-12T23:33:28.660Z,60.20
2023-02-12T23:35:55.994Z,111.03
2023-02-12T23:38:23.199Z,54.33
2023-02-12T23:40:50.346Z,52.07
2023-02-12T23:43:17.499Z,70.53
2023-02-12T23:45:45.107Z,63.30
2023-02-12T23:48:13.152Z,68.87
2023-02-12T23:50:41.027Z,66.23
2023-02-12T23:53:10.010Z,62.13
2023-02-12T23:55:38.005Z,74.67
2023-02-12T23:58:06.752Z,87.23
